createdAt,value
2019-02-16T00:00:54.327Z,98727.00
2019-02-16T00:03:23.675Z,98720.00
2019-02-16T00:05:53.575Z,98724.00
2019-02-16T00:08:23.716Z,98729.00
2019-02-16T00:10:53.077Z,98733.00
2019-02-16T00:13:22.418Z,98720.00
2019-02-16T00:15:52.731Z,98724.00
2019-02-16T00:18:23.037Z,98730.00
2019-02-16T00:20:52.511Z,98722.00
2019-02-16T00:23:22.715Z,98725.00
2019-02-16T00:25:52.057Z,98721.00
2019-02-16T00:28:21.412Z,98710.00
2019-02-16T00:30:50.779Z,98723.00
2019-02-16T00:33:20.154Z,98724.00
2019-02-16T00:35:49.511Z,98714.00
2019-02-16T00:38:18.882Z,98722.00
2019-02-16T00:40:48.245Z,98703.00
2019-02-16T00:43:17.589Z,98712.00
2019-02-16T00:45:47.432Z,98705.00
2019-02-16T00:48:16.783Z,98711.00
2019-02-16T00:50:46.140Z,98698.00
2019-02-16T00:53:16.274Z,98704.00
2019-02-16T00:55:45.647Z,98717.00
2019-02-16T00:58:14.999Z,98715.00
2019-02-16T01:00:44.361Z,98704.00
2019-02-16T01:03:13.724Z,98695.00
2019-02-16T01:05:43.144Z,98690.00
2019-02-16T01:08:13.110Z,98690.00
2019-02-16T01:10:42.478Z,98692.00
2019-02-16T01:13:11.822Z,98690.00
2019-02-16T01:15:45.219Z,98685.00
2019-02-16T01:18:14.575Z,98672.00
2019-02-16T01:20:43.926Z,98696.00
2019-02-16T01:23:14.266Z,98684.00
2019-02-16T01:25:43.618Z,98700.00
2019-02-16T01:28:12.958Z,98687.00
2019-02-16T01:30:43.084Z,98687.00
2019-02-16T01:33:12.441Z,98687.00
2019-02-16T01:35:41.807Z,98668.00
2019-02-16T01:38:11.178Z,98673.00
2019-02-16T01:40:40.554Z,98666.00
2019-02-16T01:43:09.901Z,98660.00
2019-02-16T01:45:39.285Z,98664.00
2019-02-16T01:48:08.654Z,98647.00
2019-02-16T01:50:38.019Z,98651.00
2019-02-16T01:53:11.202Z,98650.00
2019-02-16T02:14:07.954Z,98658.00
2019-02-16T02:16:38.079Z,98640.00
2019-02-16T02:19:08.092Z,98639.00
2019-02-16T02:21:41.145Z,98630.00
2019-02-16T02:24:08.553Z,98624.00
2019-02-16T02:26:37.894Z,98627.00
2019-02-16T02:29:07.297Z,98631.00
2019-02-16T02:31:37.560Z,98629.00
2019-02-16T02:34:06.995Z,98624.00
2019-02-16T02:36:42.448Z,98634.00
2019-02-16T02:39:11.825Z,98622.00
2019-02-16T02:41:41.195Z,98622.00
2019-02-16T02:44:12.180Z,98631.00
2019-02-16T02:46:41.563Z,98620.00
2019-02-16T02:49:10.933Z,98629.00
2019-02-16T02:51:51.521Z,98619.00
2019-02-16T02:54:11.762Z,98623.00
2019-02-16T02:56:41.113Z,98612.00
2019-02-16T02:59:10.486Z,98616.00
2019-02-16T03:01:39.838Z,98623.00
2019-02-16T03:04:09.200Z,98624.00
2019-02-16T03:06:38.589Z,98623.00
2019-02-16T03:09:08.012Z,98610.00
2019-02-16T03:11:37.361Z,98617.00
2019-02-16T03:14:07.783Z,98625.00
2019-02-16T03:16:38.575Z,98618.00
2019-02-16T03:19:07.950Z,98603.00
2019-02-16T03:21:37.311Z,98611.00
2019-02-16T03:24:06.685Z,98610.00
2019-02-16T03:26:49.737Z,98611.00
2019-02-16T03:29:38.091Z,98614.00
2019-02-16T03:32:34.921Z,98612.00
2019-02-16T03:35:38.883Z,98613.00
2019-02-16T03:38:21.247Z,98602.00
2019-02-16T03:40:50.963Z,98603.00
2019-02-16T03:43:20.300Z,98608.00
2019-02-16T03:45:49.691Z,98601.00
2019-02-16T03:48:19.036Z,98604.00
2019-02-16T03:50:48.427Z,98597.00
2019-02-16T03:53:17.869Z,98604.00
2019-02-16T03:55:47.243Z,98609.00
2019-02-16T03:58:16.618Z,98606.00
2019-02-16T04:00:47.065Z,98617.00
2019-02-16T04:03:16.450Z,98592.00
2019-02-16T04:05:45.796Z,98596.00
2019-02-16T04:08:19.149Z,98603.00
2019-02-16T04:10:48.528Z,98603.00
2019-02-16T04:13:17.891Z,98597.00
2019-02-16T04:15:48.233Z,98605.00
2019-02-16T04:18:18.143Z,98610.00
2019-02-16T04:20:47.489Z,98610.00
2019-02-16T04:23:16.933Z,98610.00
2019-02-16T04:25:46.230Z,98604.00
2019-02-16T04:28:15.569Z,98600.00
2019-02-16T04:30:44.972Z,98600.00
2019-02-16T04:33:14.319Z,98600.00
2019-02-16T04:35:43.668Z,98605.00
2019-02-16T04:38:14.221Z,98603.00
2019-02-16T04:40:43.574Z,98593.00
2019-02-16T04:43:12.940Z,98599.00
2019-02-16T04:45:42.334Z,98583.00
2019-02-16T04:48:11.697Z,98578.00
2019-02-16T04:50:41.055Z,98569.00
2019-02-16T04:53:11.223Z,98580.00
2019-02-16T04:55:40.565Z,98573.00
2019-02-16T04:58:09.930Z,98588.00
2019-02-16T05:00:39.650Z,98567.00
2019-02-16T05:03:09.042Z,98569.00
2019-02-16T05:05:38.420Z,98573.00
2019-02-16T05:08:07.838Z,98580.00
2019-02-16T05:10:37.190Z,98570.00
2019-02-16T05:13:06.543Z,98580.00
2019-02-16T05:15:35.921Z,98564.00
2019-02-16T05:18:05.287Z,98569.00
2019-02-16T05:20:36.617Z,98569.00
2019-02-16T05:23:06.338Z,98580.00
2019-02-16T05:25:35.720Z,98571.00
2019-02-16T05:28:05.072Z,98565.00
2019-02-16T05:30:34.433Z,98581.00
2019-02-16T05:33:03.781Z,98562.00
2019-02-16T05:35:33.136Z,98563.00
2019-02-16T05:38:02.539Z,98560.00
2019-02-16T05:40:31.911Z,98555.00
2019-02-16T05:43:01.267Z,98569.00
2019-02-16T05:45:31.446Z,98563.00
2019-02-16T05:48:00.805Z,98569.00
2019-02-16T05:50:31.876Z,98557.00
2019-02-16T05:53:01.250Z,98563.00
2019-02-16T05:55:30.605Z,98560.00
2019-02-16T05:57:59.970Z,98572.00
2019-02-16T06:00:31.225Z,98573.00
2019-02-16T06:03:00.607Z,98564.00
2019-02-16T06:05:29.962Z,98559.00
2019-02-16T06:07:59.709Z,98554.00
2019-02-16T06:10:29.058Z,98570.00
2019-02-16T06:12:58.421Z,98563.00
2019-02-16T06:15:28.723Z,98574.00
2019-02-16T06:17:58.080Z,98562.00
2019-02-16T06:20:27.444Z,98563.00
2019-02-16T06:23:04.478Z,98575.00
2019-02-16T06:25:29.677Z,98566.00
2019-02-16T06:27:59.034Z,98569.00
2019-02-16T06:30:28.467Z,98572.00
2019-02-16T06:32:57.850Z,98572.00
2019-02-16T06:35:38.253Z,98578.00
2019-02-16T06:38:07.609Z,98579.00
2019-02-16T06:40:36.965Z,98585.00
2019-02-16T06:43:06.346Z,98590.00
2019-02-16T06:45:35.702Z,98592.00
2019-02-16T06:48:05.078Z,98589.00
2019-02-16T06:50:37.340Z,98610.00
2019-02-16T06:53:12.918Z,98597.00
2019-02-16T06:55:39.469Z,98589.00
2019-02-16T06:58:10.834Z,98587.00
2019-02-16T07:00:40.200Z,98585.00
2019-02-16T07:03:09.556Z,98589.00
2019-02-16T07:05:41.222Z,98596.00
2019-02-16T07:08:10.584Z,98592.00
2019-02-16T07:10:39.935Z,98592.00
2019-02-16T07:13:11.273Z,98586.00
2019-02-16T07:15:40.621Z,98597.00
2019-02-16T07:18:20.537Z,98596.00
2019-02-16T07:20:49.896Z,98593.00
2019-02-16T07:23:25.696Z,98598.00
2019-02-16T07:25:55.740Z,98598.00
2019-02-16T07:28:25.097Z,98608.00
2019-02-16T07:30:55.040Z,98613.00
2019-02-16T07:33:24.412Z,98619.00
2019-02-16T07:35:53.794Z,98617.00
2019-02-16T07:38:23.230Z,98629.00
2019-02-16T07:40:55.739Z,98619.00
2019-02-16T07:43:42.992Z,98615.00
2019-02-16T07:46:14.077Z,98613.00
2019-02-16T07:48:45.088Z,98619.00
2019-02-16T07:51:16.087Z,98620.00
2019-02-16T07:53:51.740Z,98621.00
2019-02-16T07:56:25.540Z,98617.00
2019-02-16T07:58:56.544Z,98619.00
2019-02-16T08:01:31.338Z,98608.00
2019-02-16T08:04:02.345Z,98603.00
2019-02-16T08:06:42.401Z,98606.00
2019-02-16T08:09:19.133Z,98626.00
2019-02-16T08:11:50.146Z,98609.00
2019-02-16T08:14:23.923Z,98617.00
2019-02-16T08:17:00.951Z,98608.00
2019-02-16T08:19:47.680Z,98620.00
2019-02-16T08:22:23.203Z,98614.00
2019-02-16T08:25:01.572Z,98614.00
2019-02-16T08:27:44.795Z,98610.00
2019-02-16T08:30:24.839Z,98621.00
2019-02-16T08:32:59.782Z,98598.00
2019-02-16T08:35:39.786Z,98607.00
2019-02-16T08:38:27.184Z,98601.00
2019-02-16T08:41:01.165Z,98604.00
2019-02-16T08:43:35.045Z,98611.00
2019-02-16T08:46:06.058Z,98593.00
2019-02-16T08:48:37.083Z,98590.00
2019-02-16T08:51:13.564Z,98599.00
2019-02-16T08:53:49.808Z,98600.00
2019-02-16T08:56:41.554Z,98589.00
2019-02-16T08:59:12.552Z,98591.00
2019-02-16T09:01:46.161Z,98596.00
2019-02-16T09:04:23.102Z,98593.00
2019-02-16T09:06:57.611Z,98591.00
2019-02-16T09:09:31.741Z,98575.00
2019-02-16T09:12:02.751Z,98582.00
2019-02-16T09:14:43.857Z,98580.00
2019-02-16T09:17:14.877Z,98586.00
2019-02-16T09:19:54.640Z,98577.00
2019-02-16T09:22:25.659Z,98578.00
2019-02-16T09:25:06.675Z,98582.00
2019-02-16T09:27:46.994Z,98582.00
2019-02-16T09:33:15.496Z,98575.00
2019-02-16T09:35:58.635Z,98591.00
2019-02-16T09:38:35.728Z,98588.00
2019-02-16T09:41:07.179Z,98579.00
2019-02-16T09:43:47.180Z,98571.00
2019-02-16T09:46:34.747Z,98564.00
2019-02-16T09:49:14.893Z,98569.00
2019-02-16T09:51:45.955Z,98568.00
2019-02-16T09:54:35.422Z,98558.00
2019-02-16T09:57:06.844Z,98552.00
2019-02-16T09:59:54.098Z,98554.00
2019-02-16T10:02:30.938Z,98550.00
2019-02-16T10:05:18.368Z,98541.00
2019-02-16T10:07:59.367Z,98551.00
2019-02-16T10:10:30.386Z,98544.00
2019-02-16T10:13:04.597Z,98543.00
2019-02-16T10:15:41.435Z,98545.00
2019-02-16T10:18:17.334Z,98526.00
2019-02-16T10:20:48.337Z,98521.00
2019-02-16T10:23:25.663Z,98511.00
2019-02-16T10:25:59.377Z,98523.00
2019-02-16T10:28:31.021Z,98511.00
2019-02-16T10:31:07.700Z,98528.00
2019-02-16T10:33:38.736Z,98523.00
2019-02-16T10:36:15.382Z,98523.00
2019-02-16T10:38:50.763Z,98525.00
2019-02-16T10:41:21.752Z,98531.00
2019-02-16T10:43:52.758Z,98522.00
2019-02-16T10:46:33.171Z,98526.00
2019-02-16T10:49:07.096Z,98520.00
2019-02-16T10:51:41.847Z,98534.00
2019-02-16T10:54:15.670Z,98514.00
2019-02-16T10:56:46.694Z,98514.00
2019-02-16T10:59:19.279Z,98518.00
2019-02-16T11:01:58.749Z,98526.00
2019-02-16T11:04:38.166Z,98526.00
2019-02-16T11:07:08.002Z,98525.00
2019-02-16T11:09:44.517Z,98526.00
2019-02-16T11:12:21.230Z,98519.00
2019-02-16T11:14:58.015Z,98522.00
2019-02-16T11:17:43.999Z,98521.00
2019-02-16T11:20:38.341Z,98517.00
2019-02-16T11:23:18.406Z,98523.00
2019-02-16T11:26:05.297Z,98522.00
2019-02-16T11:28:52.679Z,98517.00
2019-02-16T11:31:27.685Z,98518.00
2019-02-16T11:34:01.675Z,98519.00
2019-02-16T11:36:42.331Z,98515.00
2019-02-16T11:39:13.345Z,98517.00
2019-02-16T11:42:00.801Z,98528.00
2019-02-16T11:44:31.814Z,98522.00
2019-02-16T11:47:02.833Z,98518.00
2019-02-16T11:49:33.949Z,98519.00
2019-02-16T11:52:21.452Z,98510.00
2019-02-16T11:55:00.779Z,98512.00
2019-02-16T11:57:40.758Z,98523.00
2019-02-16T12:00:30.359Z,98511.00
2019-02-16T12:03:01.572Z,98501.00
2019-02-16T12:05:35.505Z,98504.00
2019-02-16T12:08:09.297Z,98503.00
2019-02-16T12:10:49.279Z,98509.00
2019-02-16T12:13:21.252Z,98504.00
2019-02-16T12:16:08.321Z,98493.00
2019-02-16T12:18:39.331Z,98493.00
2019-02-16T12:21:10.351Z,98498.00
2019-02-16T12:23:57.226Z,98496.00
2019-02-16T12:26:28.225Z,98487.00
2019-02-16T12:29:05.400Z,98499.00
2019-02-16T12:31:36.440Z,98507.00
2019-02-16T12:34:27.296Z,98503.00
2019-02-16T12:36:58.287Z,98507.00
2019-02-16T12:39:35.216Z,98500.00
2019-02-16T12:42:09.212Z,98505.00
2019-02-16T12:44:49.415Z,98493.00
2019-02-16T12:47:23.274Z,98510.00
2019-02-16T12:49:55.386Z,98493.00
2019-02-16T12:55:36.790Z,98497.00
2019-02-16T12:58:07.785Z,98491.00
2019-02-16T13:00:38.826Z,98483.00
2019-02-16T13:03:13.203Z,98479.00
2019-02-16T13:06:02.583Z,98478.00
2019-02-16T13:08:42.849Z,98483.00
2019-02-16T13:11:25.851Z,98471.00
2019-02-16T13:13:56.958Z,98472.00
2019-02-16T13:16:39.608Z,98459.00
2019-02-16T13:19:18.301Z,98467.00
2019-02-16T13:21:52.130Z,98462.00
2019-02-16T13:24:35.426Z,98474.00
2019-02-16T13:27:11.887Z,98471.00
2019-02-16T13:29:53.780Z,98460.00
2019-02-16T13:32:24.776Z,98458.00
2019-02-16T13:34:58.637Z,98468.00
2019-02-16T13:37:46.396Z,98453.00
2019-02-16T13:40:20.206Z,98455.00
2019-02-16T13:42:53.850Z,98455.00
2019-02-16T13:45:24.873Z,98460.00
2019-02-16T13:47:55.909Z,98452.00
2019-02-16T13:50:39.192Z,98462.00
2019-02-16T13:53:16.623Z,98454.00
2019-02-16T13:55:50.420Z,98458.00
2019-02-16T13:58:21.428Z,98457.00
2019-02-16T14:01:11.307Z,98455.00
2019-02-16T14:03:58.352Z,98464.00
2019-02-16T14:06:35.094Z,98459.00
2019-02-16T14:09:15.527Z,98457.00
2019-02-16T14:11:49.357Z,98464.00
2019-02-16T14:14:32.525Z,98461.00
2019-02-16T14:17:09.457Z,98458.00
2019-02-16T14:19:38.817Z,98461.00
2019-02-16T14:22:08.180Z,98440.00
2019-02-16T14:24:42.835Z,98450.00
2019-02-16T14:27:12.198Z,98447.00
2019-02-16T14:29:41.576Z,98450.00
2019-02-16T14:32:11.060Z,98445.00
2019-02-16T14:34:40.416Z,98448.00
2019-02-16T14:37:11.420Z,98451.00
2019-02-16T14:39:42.197Z,98461.00
2019-02-16T14:42:11.551Z,98449.00
2019-02-16T14:44:40.910Z,98452.00
2019-02-16T14:47:11.250Z,98455.00
2019-02-16T14:49:40.617Z,98452.00
2019-02-16T14:52:09.994Z,98433.00
2019-02-16T14:54:39.641Z,98444.00
2019-02-16T14:57:09.001Z,98449.00
2019-02-16T14:59:38.359Z,98455.00
2019-02-16T15:02:07.834Z,98447.00
2019-02-16T15:04:37.347Z,98451.00
2019-02-16T15:07:06.904Z,98444.00
2019-02-16T15:09:38.261Z,98437.00
2019-02-16T15:12:07.648Z,98425.00
2019-02-16T15:14:37.007Z,98433.00
2019-02-16T15:17:06.775Z,98434.00
2019-02-16T15:19:36.129Z,98432.00
2019-02-16T15:22:05.667Z,98432.00
2019-02-16T15:24:35.042Z,98428.00
2019-02-16T15:27:04.406Z,98432.00
2019-02-16T15:29:53.138Z,98433.00
2019-02-16T15:32:22.499Z,98430.00
2019-02-16T15:34:51.852Z,98437.00
2019-02-16T15:37:25.053Z,98424.00
2019-02-16T15:39:54.462Z,98423.00
2019-02-16T15:42:29.189Z,98424.00
2019-02-16T15:44:58.548Z,98434.00
2019-02-16T15:47:27.918Z,98434.00
2019-02-16T15:49:57.306Z,98421.00
2019-02-16T15:52:26.680Z,98421.00
2019-02-16T15:54:56.042Z,98431.00
2019-02-16T15:57:26.141Z,98421.00
2019-02-16T15:59:55.528Z,98427.00
2019-02-16T16:02:24.919Z,98432.00
2019-02-16T16:04:54.312Z,98423.00
2019-02-16T16:07:23.709Z,98424.00
2019-02-16T16:09:54.704Z,98424.00
2019-02-16T16:12:25.823Z,98430.00
2019-02-16T16:14:56.836Z,98423.00
2019-02-16T16:17:30.290Z,98436.00
2019-02-16T16:20:07.307Z,98444.00
2019-02-16T16:22:54.189Z,98434.00
2019-02-16T16:25:25.188Z,98442.00
2019-02-16T16:28:02.224Z,98432.00
2019-02-16T16:30:39.091Z,98427.00
2019-02-16T16:33:12.921Z,98441.00
2019-02-16T16:35:43.936Z,98441.00
2019-02-16T16:38:15.016Z,98431.00
2019-02-16T16:40:51.672Z,98436.00
2019-02-16T16:43:25.532Z,98430.00
2019-02-16T16:46:09.101Z,98438.00
2019-02-16T16:48:40.106Z,98436.00
2019-02-16T16:51:21.335Z,98438.00
2019-02-16T16:53:58.312Z,98451.00
2019-02-16T16:56:38.372Z,98440.00
2019-02-16T16:59:12.560Z,98458.00
2019-02-16T17:01:59.851Z,98449.00
2019-02-16T17:04:30.863Z,98451.00
2019-02-16T17:07:22.245Z,98459.00
2019-02-16T17:09:53.245Z,98456.00
2019-02-16T17:12:34.766Z,98462.00
2019-02-16T17:15:06.434Z,98461.00
2019-02-16T17:17:56.308Z,98451.00
2019-02-16T17:20:39.489Z,98447.00
2019-02-16T17:23:10.542Z,98449.00
2019-02-16T17:25:41.546Z,98448.00
2019-02-16T17:28:27.594Z,98450.00
2019-02-16T17:31:16.923Z,98451.00
2019-02-16T17:34:16.070Z,98455.00
2019-02-16T17:36:47.077Z,98456.00
2019-02-16T17:39:25.228Z,98451.00
2019-02-16T17:42:05.520Z,98447.00
2019-02-16T17:44:46.319Z,98462.00
2019-02-16T17:47:33.491Z,98454.00
2019-02-16T17:50:07.309Z,98470.00
2019-02-16T17:52:54.818Z,98475.00
2019-02-16T17:55:31.953Z,98465.00
2019-02-16T17:58:14.704Z,98460.00
2019-02-16T18:00:57.271Z,98476.00
2019-02-16T18:03:28.277Z,98472.00
2019-02-16T18:05:59.282Z,98470.00
2019-02-16T18:08:48.737Z,98475.00
2019-02-16T18:11:22.723Z,98472.00
2019-02-16T18:14:07.229Z,98481.00
2019-02-16T18:16:38.239Z,98469.00
2019-02-16T18:19:21.743Z,98482.00
2019-02-16T18:21:52.733Z,98465.00
2019-02-16T18:24:29.685Z,98479.00
2019-02-16T18:27:06.659Z,98479.00
2019-02-16T18:29:44.369Z,98476.00
2019-02-16T18:32:31.553Z,98481.00
2019-02-16T18:35:08.920Z,98480.00
2019-02-16T18:37:55.108Z,98477.00
2019-02-16T18:40:29.845Z,98469.00
2019-02-16T18:43:03.913Z,98483.00
2019-02-16T18:45:55.115Z,98476.00
2019-02-16T18:48:35.172Z,98482.00
2019-02-16T18:51:13.265Z,98472.00
2019-02-16T18:53:56.540Z,98478.00
2019-02-16T18:56:34.281Z,98474.00
2019-02-16T18:59:14.445Z,98475.00
2019-02-16T19:02:04.241Z,98490.00
2019-02-16T19:04:44.113Z,98470.00
2019-02-16T19:07:31.284Z,98482.00
2019-02-16T19:10:05.020Z,98462.00
2019-02-16T19:12:39.739Z,98476.00
2019-02-16T19:15:14.125Z,98479.00
2019-02-16T19:18:03.238Z,98474.00
2019-02-16T19:20:50.731Z,98484.00
2019-02-16T19:23:38.160Z,98473.00
2019-02-16T19:26:11.951Z,98487.00
2019-02-16T19:28:59.236Z,98481.00
2019-02-16T19:31:39.162Z,98474.00
2019-02-16T19:34:25.585Z,98480.00
2019-02-16T19:36:59.583Z,98476.00
2019-02-16T19:39:30.596Z,98472.00
2019-02-16T19:42:02.220Z,98477.00
2019-02-16T19:44:51.271Z,98470.00
2019-02-16T19:47:24.802Z,98469.00
2019-02-16T19:49:58.539Z,98477.00
2019-02-16T19:52:40.573Z,98483.00
2019-02-16T19:55:29.393Z,98477.00
2019-02-16T19:58:00.406Z,98488.00
2019-02-16T20:00:43.540Z,98475.00
2019-02-16T20:03:18.770Z,98463.00
2019-02-16T20:06:01.717Z,98468.00
2019-02-16T20:08:32.818Z,98465.00
2019-02-16T20:11:18.956Z,98469.00
2019-02-16T20:13:49.974Z,98468.00
2019-02-16T20:16:20.980Z,98467.00
2019-02-16T20:18:51.984Z,98466.00
2019-02-16T20:21:25.820Z,98473.00
2019-02-16T20:24:00.035Z,98481.00
2019-02-16T20:26:37.063Z,98484.00
2019-02-16T20:29:17.003Z,98472.00
2019-02-16T20:32:05.365Z,98477.00
2019-02-16T20:34:53.056Z,98490.00
2019-02-16T20:37:27.732Z,98475.00
2019-02-16T20:40:13.821Z,98474.00
2019-02-16T20:42:51.463Z,98479.00
2019-02-16T20:45:31.273Z,98477.00
2019-02-16T20:48:02.294Z,98479.00
2019-02-16T20:50:39.321Z,98484.00
2019-02-16T20:53:16.114Z,98490.00
2019-02-16T20:55:53.109Z,98480.00
2019-02-16T20:58:43.236Z,98477.00
2019-02-16T21:01:29.346Z,98488.00
2019-02-16T21:04:01.330Z,98478.00
2019-02-16T21:06:48.183Z,98482.00
2019-02-16T21:09:28.193Z,98480.00
2019-02-16T21:11:59.190Z,98482.00
2019-02-16T21:14:42.554Z,98479.00
2019-02-16T21:17:25.809Z,98478.00
2019-02-16T21:19:56.858Z,98473.00
2019-02-16T21:22:27.855Z,98469.00
2019-02-16T21:25:03.369Z,98477.00
2019-02-16T21:27:57.812Z,98476.00
2019-02-16T21:30:27.348Z,98477.00
2019-02-16T21:33:04.048Z,98478.00
2019-02-16T21:35:46.922Z,98477.00
2019-02-16T21:38:17.933Z,98479.00
2019-02-16T21:40:48.941Z,98474.00
2019-02-16T21:43:22.439Z,98477.00
2019-02-16T21:46:09.803Z,98468.00
2019-02-16T21:48:46.826Z,98483.00
2019-02-16T21:51:26.805Z,98483.00
2019-02-16T21:53:57.829Z,98478.00
2019-02-16T21:56:40.537Z,98467.00
2019-02-16T21:59:18.986Z,98460.00
2019-02-16T22:01:59.249Z,98477.00
2019-02-16T22:04:36.708Z,98475.00
2019-02-16T22:07:07.992Z,98471.00
2019-02-16T22:09:50.979Z,98473.00
2019-02-16T22:12:38.110Z,98473.00
2019-02-16T22:15:09.335Z,98474.00
2019-02-16T22:17:39.355Z,98477.00
2019-02-16T22:20:10.490Z,98473.00
2019-02-16T22:22:39.951Z,98458.00
2019-02-16T22:25:09.882Z,98469.00
2019-02-16T22:27:39.220Z,98465.00
2019-02-16T22:30:11.173Z,98474.00
2019-02-16T22:32:40.565Z,98464.00
2019-02-16T22:35:10.085Z,98467.00
2019-02-16T22:37:43.428Z,98467.00
2019-02-16T22:40:12.942Z,98479.00
2019-02-16T22:42:42.346Z,98475.00
2019-02-16T22:45:16.378Z,98472.00
2019-02-16T22:47:45.749Z,98457.00
2019-02-16T22:50:15.114Z,98466.00
2019-02-16T22:52:44.519Z,98465.00
2019-02-16T22:55:13.902Z,98470.00
2019-02-16T22:57:43.277Z,98468.00
2019-02-16T23:00:18.865Z,98476.00
2019-02-16T23:02:54.786Z,98477.00
2019-02-16T23:05:24.355Z,98463.00
2019-02-16T23:07:54.237Z,98461.00
2019-02-16T23:10:23.621Z,98466.00
2019-02-16T23:12:52.996Z,98458.00
2019-02-16T23:15:27.281Z,98457.00
2019-02-16T23:17:56.656Z,98462.00
2019-02-16T23:20:27.613Z,98453.00
2019-02-16T23:22:57.002Z,98466.00
2019-02-16T23:25:26.374Z,98460.00
2019-02-16T23:27:55.767Z,98461.00
2019-02-16T23:30:25.301Z,98452.00
2019-02-16T23:32:56.889Z,98448.00
2019-02-16T23:35:25.786Z,98457.00
2019-02-16T23:37:55.160Z,98449.00
2019-02-16T23:40:24.517Z,98451.00
2019-02-16T23:42:53.907Z,98457.00
2019-02-16T23:45:23.275Z,98453.00
2019-02-16T23:47:52.659Z,98452.00
2019-02-16T23:50:22.299Z,98450.00
2019-02-16T23:52:51.726Z,98446.00
2019-02-16T23:55:21.201Z,98446.00
2019-02-16T23:57:52.717Z,98444.00
